Time;durP1;ratioP1;P1;durP2;ratioP2;P2;SDS_P1;SDS_P2;PMS_P1;PMS_P2;Temp;Humidity;BMP_temperature;BMP_pressure;BME280_temperature;BME280_humidity;BME280_pressure;Samples;Min_cycle;Max_cycle;Signal;HPM_P1;HPM_P2
2022/01/14 00:00:51;;;;;;;19.63;5.50;;;;;;;5.18;100.00;102473.56;7398474;19;20413;-44
2022/01/14 00:03:20;;;;;;;21.43;5.80;;;;;;;5.15;100.00;102460.53;7392259;19;20411;-49
2022/01/14 00:05:50;;;;;;;20.90;6.30;;;;;;;5.14;100.00;102461.28;7398574;19;20388;-48
2022/01/14 00:08:20;;;;;;;21.80;5.80;;;;;;;5.13;100.00;102455.25;7392365;19;20436;-48
2022/01/14 00:10:50;;;;;;;19.77;6.43;;;;;;;5.13;100.00;102460.38;7398675;19;20399;-46
2022/01/14 00:16:05;;;;;;;20.33;5.73;;;;;;;5.09;100.00;102459.97;7398509;19;20665;-50
2022/01/14 00:18:35;;;;;;;19.50;5.93;;;;;;;5.10;100.00;102461.75;7391901;19;20738;-44
2022/01/14 00:21:04;;;;;;;21.80;5.13;;;;;;;5.09;100.00;102452.28;7397501;19;20457;-45
2022/01/14 00:23:38;;;;;;;25.93;7.27;;;;;;;5.10;100.00;102457.56;7395080;19;20869;-44
2022/01/14 00:31:43;;;;;;;23.03;7.23;;;;;;;5.07;100.00;102457.25;7399670;19;20388;-43
2022/01/14 00:34:13;;;;;;;28.97;7.00;;;;;;;4.99;100.00;102451.44;7393333;19;20421;-44
2022/01/14 00:36:43;;;;;;;23.53;6.50;;;;;;;5.06;100.00;102457.09;7398889;19;20397;-48
2022/01/14 00:39:14;;;;;;;31.20;8.10;;;;;;;5.00;100.00;102443.03;7393039;19;20423;-51
2022/01/14 00:41:45;;;;;;;27.67;7.10;;;;;;;4.98;100.00;102439.41;7399014;19;20397;-48
2022/01/14 00:44:19;;;;;;;17.67;5.77;;;;;;;4.94;100.00;102436.44;7395466;19;20698;-44
2022/01/14 00:46:49;;;;;;;21.67;5.97;;;;;;;4.90;100.00;102448.03;7398780;19;20396;-47
2022/01/14 00:49:21;;;;;;;27.10;6.47;;;;;;;4.91;100.00;102431.94;7392284;19;20907;-44
2022/01/14 00:51:51;;;;;;;27.47;7.70;;;;;;;4.88;100.00;102434.22;7404096;19;20467;-47
2022/01/14 00:54:20;;;;;;;27.10;7.20;;;;;;;4.85;100.00;102416.00;7396253;19;20425;-45
2022/01/14 00:57:03;;;;;;;21.80;8.07;;;;;;;4.84;100.00;102424.44;7402304;19;20463;-44
2022/01/14 00:59:32;;;;;;;15.97;5.83;;;;;;;4.82;100.00;102431.09;7394492;19;20440;-45
2022/01/14 01:02:03;;;;;;;13.90;5.47;;;;;;;4.81;100.00;102417.41;7400005;19;20447;-44
2022/01/14 01:04:36;;;;;;;19.00;6.60;;;;;;;4.81;100.00;102407.16;7394628;19;20415;-43
2022/01/14 01:07:08;;;;;;;13.27;3.63;;;;;;;4.76;100.00;102420.31;7398878;19;20387;-43
2022/01/14 01:09:45;;;;;;;17.67;6.03;;;;;;;4.80;100.00;102417.25;7395111;19;20434;-48
2022/01/14 01:12:28;;;;;;;25.00;6.90;;;;;;;4.80;100.00;102407.00;7399476;19;20468;-47
2022/01/14 01:15:08;;;;;;;21.10;6.60;;;;;;;4.83;100.00;102409.88;7395359;19;20420;-50
2022/01/14 01:17:38;;;;;;;23.53;6.50;;;;;;;4.80;100.00;102405.38;7398440;19;20445;-45
2022/01/14 01:20:15;;;;;;;33.10;7.87;;;;;;;4.81;100.00;102411.38;7396687;19;20442;-44
2022/01/14 01:22:45;;;;;;;16.63;6.00;;;;;;;4.82;100.00;102405.53;7395234;19;20391;-47
2022/01/14 01:25:17;;;;;;;33.40;7.73;;;;;;;4.81;100.00;102408.81;7400301;19;20865;-44
2022/01/14 01:27:48;;;;;;;29.13;7.60;;;;;;;4.78;100.00;102409.47;7395700;19;20392;-45
2022/01/14 01:30:49;;;;;;;14.23;5.83;;;;;;;4.79;100.00;102402.66;7399815;19;20402;-45
2022/01/14 01:33:19;;;;;;;18.00;7.60;;;;;;;4.78;100.00;102401.78;7395585;19;20689;-50
2022/01/14 01:35:49;;;;;;;17.03;6.80;;;;;;;4.80;100.00;102401.91;7399149;19;20399;-43
2022/01/14 01:38:19;;;;;;;23.87;6.97;;;;;;;4.83;100.00;102407.31;7392322;19;20511;-45
2022/01/14 01:40:49;;;;;;;21.73;6.50;;;;;;;4.81;100.00;102403.69;7397576;19;20388;-45
2022/01/14 01:43:24;;;;;;;15.13;5.40;;;;;;;4.80;100.00;102407.00;7395487;19;20503;-43
2022/01/14 01:45:58;;;;;;;21.87;5.40;;;;;;;4.83;100.00;102408.19;7397097;19;20385;-44
2022/01/14 01:48:28;;;;;;;25.90;6.53;;;;;;;4.80;100.00;102396.78;7390870;19;20441;-44
2022/01/14 01:50:58;;;;;;;19.83;5.70;;;;;;;4.78;100.00;102406.91;7399035;19;20415;-46
2022/01/14 01:53:27;;;;;;;26.57;6.30;;;;;;;4.80;100.00;102397.69;7395178;19;20423;-45
2022/01/14 01:55:57;;;;;;;27.97;6.63;;;;;;;4.85;100.00;102400.66;7398712;19;20399;-52
2022/01/14 01:58:26;;;;;;;18.97;6.37;;;;;;;4.86;100.00;102397.34;7392300;19;20500;-47
2022/01/14 02:00:58;;;;;;;30.67;7.33;;;;;;;4.84;100.00;102404.91;7397127;19;20453;-45
2022/01/14 02:03:28;;;;;;;17.60;5.93;;;;;;;4.84;100.00;102404.00;7392341;19;20933;-47
2022/01/14 02:05:57;;;;;;;19.90;6.80;;;;;;;4.86;100.00;102397.34;7397660;19;20913;-46
2022/01/14 02:08:27;;;;;;;13.27;5.67;;;;;;;4.84;100.00;102394.69;7392490;19;20436;-47
2022/01/14 02:10:56;;;;;;;19.47;5.70;;;;;;;4.83;100.00;102391.97;7397776;19;20399;-48
2022/01/14 02:13:26;;;;;;;11.80;3.27;;;;;;;4.80;100.00;102381.44;7395239;19;20491;-47
2022/01/14 02:18:48;;;;;;;19.93;5.30;;;;;;;4.85;100.00;102387.88;7392121;19;20419;-43
2022/01/14 02:24:21;;;;;;;18.37;5.47;;;;;;;4.88;100.00;102384.72;7393998;19;20484;-46
2022/01/14 02:26:52;;;;;;;22.20;5.30;;;;;;;4.90;100.00;102378.97;7397978;19;20468;-46
2022/01/14 02:29:23;;;;;;;20.50;6.03;;;;;;;4.89;100.00;102371.16;7392061;19;20433;-45
2022/01/14 02:31:53;;;;;;;22.40;5.20;;;;;;;4.85;100.00;102369.97;7397877;19;20455;-44
2022/01/14 02:34:22;;;;;;;18.57;5.40;;;;;;;4.84;100.00;102368.19;7394351;19;20433;-47
2022/01/14 02:36:56;;;;;;;13.37;4.23;;;;;;;4.83;100.00;102361.28;7396410;19;20435;-47
2022/01/14 02:39:26;;;;;;;25.00;5.47;;;;;;;4.83;100.00;102356.16;7391657;19;20873;-45
2022/01/14 02:41:55;;;;;;;19.57;5.30;;;;;;;4.84;100.00;102338.41;7399748;19;20410;-46
2022/01/14 02:44:27;;;;;;;15.57;5.00;;;;;;;4.81;100.00;102343.22;7394255;19;20416;-43
2022/01/14 02:47:04;;;;;;;9.93;4.27;;;;;;;4.83;100.00;102330.59;7397337;19;20463;-45
2022/01/14 02:49:37;;;;;;;26.23;6.17;;;;;;;4.84;100.00;102328.19;7389385;19;20419;-44
2022/01/14 02:52:10;;;;;;;19.10;4.60;;;;;;;4.84;100.00;102327.25;7397558;19;20835;-44
2022/01/14 02:55:02;;;;;;;14.77;4.70;;;;;;;4.83;100.00;102320.34;7392925;19;20480;-44
2022/01/14 02:57:32;;;;;;;19.87;4.87;;;;;;;4.84;100.00;102317.94;7402452;19;20399;-47
2022/01/14 03:00:02;;;;;;;19.83;4.70;;;;;;;4.88;100.00;102307.97;7397624;19;20870;-44
2022/01/14 03:02:32;;;;;;;20.77;4.90;;;;;;;4.88;100.00;102308.88;7404296;19;20922;-44
2022/01/14 03:05:02;;;;;;;8.57;3.27;;;;;;;4.86;100.00;102289.91;7399984;19;20417;-45
2022/01/14 03:07:35;;;;;;;26.53;4.30;;;;;;;4.86;100.00;102300.16;7402653;19;20401;-46
2022/01/14 03:10:06;;;;;;;15.33;4.07;;;;;;;4.90;100.00;102302.22;7401101;19;20424;-44
2022/01/14 03:12:35;;;;;;;19.80;6.07;;;;;;;4.95;100.00;102307.75;7404038;19;20861;-46
2022/01/14 03:15:06;;;;;;;12.57;4.60;;;;;;;4.93;100.00;102292.25;7402290;19;20422;-43
2022/01/14 03:17:36;;;;;;;18.80;5.10;;;;;;;4.96;100.00;102290.00;7402776;19;20469;-44
2022/01/14 03:20:08;;;;;;;19.13;5.10;;;;;;;5.00;100.00;102286.03;7399715;19;20417;-47
2022/01/14 03:22:52;;;;;;;16.70;4.73;;;;;;;4.98;100.00;102291.03;7403694;19;20444;-43
2022/01/14 03:28:03;;;;;;;12.33;2.87;;;;;;;4.97;100.00;102261.09;7399109;19;20407;-45
2022/01/14 03:30:33;;;;;;;9.50;3.20;;;;;;;4.96;100.00;102271.19;7403561;19;20395;-43
2022/01/14 03:33:02;;;;;;;12.23;4.20;;;;;;;4.99;100.00;102245.88;7402416;19;20409;-44
2022/01/14 03:35:32;;;;;;;14.80;4.70;;;;;;;5.04;100.00;102262.53;7402308;19;20414;-45
2022/01/14 03:38:04;;;;;;;20.50;4.37;;;;;;;5.00;100.00;102252.78;7397493;19;20423;-52
2022/01/14 03:40:33;;;;;;;23.13;5.47;;;;;;;5.03;100.00;102247.03;7402610;19;20386;-44
2022/01/14 03:43:03;;;;;;;19.03;5.10;;;;;;;5.04;100.00;102246.28;7400035;19;20421;-49
2022/01/14 03:45:32;;;;;;;11.67;3.70;;;;;;;5.02;100.00;102245.25;7402550;19;20471;-45
2022/01/14 03:48:02;;;;;;;19.40;4.10;;;;;;;5.05;100.00;102250.63;7398231;19;21059;-44
2022/01/14 03:50:31;;;;;;;14.03;3.50;;;;;;;5.03;100.00;102252.16;7402417;19;20388;-43
2022/01/14 03:53:03;;;;;;;20.30;5.20;;;;;;;5.06;100.00;102247.31;7397845;19;20410;-45
2022/01/14 03:55:38;;;;;;;19.53;4.70;;;;;;;5.02;100.00;102251.25;7402053;19;20848;-44
2022/01/14 03:58:07;;;;;;;18.90;5.87;;;;;;;5.07;100.00;102244.00;7397042;19;20498;-44
2022/01/14 04:00:37;;;;;;;13.23;3.83;;;;;;;5.07;100.00;102236.34;7401949;19;20397;-44
2022/01/14 04:03:08;;;;;;;18.83;5.60;;;;;;;5.10;100.00;102246.81;7399440;19;20404;-44
2022/01/14 04:05:38;;;;;;;19.20;4.87;;;;;;;5.09;100.00;102252.72;7401842;19;20448;-43
2022/01/14 04:08:10;;;;;;;19.57;3.90;;;;;;;5.11;100.00;102254.63;7396870;19;20439;-49
2022/01/14 04:10:40;;;;;;;19.10;5.87;;;;;;;5.11;100.00;102253.72;7402061;19;20449;-45
2022/01/14 04:13:14;;;;;;;17.20;5.63;;;;;;;5.12;100.00;102264.09;7397919;19;20426;-43
2022/01/14 04:15:46;;;;;;;17.90;5.40;;;;;;;5.14;100.00;102271.94;7401451;19;20392;-45
2022/01/14 04:18:18;;;;;;;36.97;8.77;;;;;;;5.17;100.00;102261.94;7397533;19;20480;-46
2022/01/14 04:20:48;;;;;;;15.40;5.50;;;;;;;5.18;100.00;102263.72;7401139;19;20382;-43
2022/01/14 04:23:22;;;;;;;16.77;5.13;;;;;;;5.18;100.00;102265.41;7395186;19;20492;-45
2022/01/14 04:25:53;;;;;;;21.47;6.20;;;;;;;5.19;100.00;102254.41;7401089;19;20654;-44
2022/01/14 04:28:24;;;;;;;15.73;5.40;;;;;;;5.16;100.00;102247.34;7394660;19;20471;-45
2022/01/14 04:30:56;;;;;;;19.60;5.60;;;;;;;5.14;100.00;102252.34;7400571;19;20965;-45
2022/01/14 04:33:26;;;;;;;18.60;6.00;;;;;;;5.11;100.00;102240.94;7399683;19;20404;-45
2022/01/14 04:35:58;;;;;;;22.53;4.60;;;;;;;5.13;100.00;102240.31;7401290;19;20692;-44
2022/01/14 04:38:32;;;;;;;17.10;5.43;;;;;;;5.15;100.00;102237.88;7396442;19;20428;-46
2022/01/14 04:41:01;;;;;;;19.23;7.27;;;;;;;5.17;100.00;102244.03;7399785;19;20461;-44
2022/01/14 04:43:31;;;;;;;18.23;5.50;;;;;;;5.15;100.00;102245.56;7395809;19;20522;-44
2022/01/14 04:48:43;;;;;;;13.40;4.70;;;;;;;5.18;100.00;102235.59;7396188;19;20532;-44
2022/01/14 04:51:13;;;;;;;13.23;4.97;;;;;;;5.13;100.00;102240.31;7400597;19;20409;-48
2022/01/14 04:53:46;;;;;;;15.50;4.70;;;;;;;5.12;100.00;102235.03;7399722;19;20691;-44
2022/01/14 04:56:16;;;;;;;13.73;4.47;;;;;;;5.13;100.00;102249.66;7400785;19;20424;-44
2022/01/14 04:58:45;;;;;;;20.80;5.10;;;;;;;5.14;100.00;102244.66;7393606;19;20436;-44
2022/01/14 05:01:15;;;;;;;17.77;4.50;;;;;;;5.12;100.00;102247.84;7399982;19;20384;-46
2022/01/14 05:03:45;;;;;;;10.53;4.27;;;;;;;5.11;100.00;102240.94;7396858;19;20412;-44
2022/01/14 05:06:15;;;;;;;19.13;4.80;;;;;;;5.09;100.00;102242.47;7399802;19;20396;-43
2022/01/14 05:08:47;;;;;;;15.53;4.07;;;;;;;5.06;100.00;102242.19;7395372;19;20500;-44
2022/01/14 05:11:37;;;;;;;13.77;4.37;;;;;;;5.09;100.00;102247.59;7399974;19;20402;-44
2022/01/14 05:14:07;;;;;;;10.83;3.80;;;;;;;5.07;100.00;102238.88;7396007;19;20419;-44
2022/01/14 05:16:36;;;;;;;18.23;4.17;;;;;;;5.08;100.00;102240.69;7398989;19;20388;-46
2022/01/14 05:19:06;;;;;;;14.13;4.57;;;;;;;5.09;100.00;102229.69;7393853;19;20778;-46
2022/01/14 05:21:35;;;;;;;19.37;3.57;;;;;;;5.04;100.00;102236.03;7397705;19;20394;-45
2022/01/14 05:24:08;;;;;;;19.70;4.93;;;;;;;5.04;100.00;102249.75;7395902;19;20425;-45
2022/01/14 05:26:37;;;;;;;28.13;4.73;;;;;;;5.05;100.00;102235.28;7399686;19;20637;-44
2022/01/14 05:29:07;;;;;;;18.53;4.40;;;;;;;5.01;100.00;102229.00;7392604;19;20564;-45
2022/01/14 05:31:46;;;;;;;24.47;4.00;;;;;;;4.98;100.00;102239.84;7399289;19;20485;-46
2022/01/14 05:34:16;;;;;;;13.97;4.30;;;;;;;4.99;100.00;102235.66;7395299;19;20426;-44
2022/01/14 05:36:46;;;;;;;7.43;3.20;;;;;;;4.94;100.00;102222.47;7399885;19;20394;-45
2022/01/14 05:39:20;;;;;;;18.40;4.47;;;;;;;4.96;100.00;102223.47;7392880;19;20498;-46
2022/01/14 05:41:50;;;;;;;11.97;3.73;;;;;;;4.93;100.00;102235.97;7397896;19;20388;-44
2022/01/14 05:44:19;;;;;;;22.93;4.30;;;;;;;5.06;100.00;102239.63;7394066;19;20484;-44
2022/01/14 05:46:49;;;;;;;14.90;4.43;;;;;;;4.99;100.00;102243.31;7398598;19;20447;-44
2022/01/14 05:49:19;;;;;;;14.13;5.13;;;;;;;4.98;100.00;102244.97;7391222;19;20438;-43
2022/01/14 05:51:49;;;;;;;29.37;6.93;;;;;;;5.08;100.00;102249.22;7398152;19;20471;-45
2022/01/14 05:54:22;;;;;;;17.07;4.77;;;;;;;4.97;100.00;102258.53;7397470;19;20511;-45
2022/01/14 05:56:51;;;;;;;28.40;8.90;;;;;;;5.06;100.00;102249.84;7401380;19;20418;-46
2022/01/14 05:59:21;;;;;;;17.30;4.17;;;;;;;5.07;100.00;102256.81;7384980;19;20415;-45
2022/01/14 06:01:50;;;;;;;22.33;5.23;;;;;;;4.98;100.00;102255.19;7401456;19;21211;-47
2022/01/14 06:04:20;;;;;;;38.67;6.40;;;;;;;4.99;100.00;102257.00;7393364;19;20420;-44
2022/01/14 06:06:49;;;;;;;22.43;6.23;;;;;;;5.00;100.00;102240.91;7398378;19;20396;-46
2022/01/14 06:09:22;;;;;;;13.83;4.33;;;;;;;4.95;100.00;102239.59;7393283;19;20532;-46
2022/01/14 06:11:51;;;;;;;13.80;5.10;;;;;;;4.94;100.00;102242.94;7397710;19;20440;-43
2022/01/14 06:14:20;;;;;;;17.53;4.63;;;;;;;4.98;100.00;102244.97;7394921;19;20432;-44
2022/01/14 06:16:50;;;;;;;18.80;4.53;;;;;;;4.85;100.00;102249.75;7398100;19;20847;-47
2022/01/14 06:19:20;;;;;;;18.10;4.30;;;;;;;4.86;100.00;102254.13;7391502;19;20418;-47
2022/01/14 06:21:50;;;;;;;29.53;4.90;;;;;;;4.80;100.00;102259.59;7396298;19;20452;-47
2022/01/14 06:24:22;;;;;;;18.90;4.07;;;;;;;4.79;100.00;102256.88;7391962;19;20876;-46
2022/01/14 06:26:52;;;;;;;24.40;5.00;;;;;;;4.76;100.00;102241.28;7400405;19;20465;-48
2022/01/14 06:29:22;;;;;;;28.87;5.00;;;;;;;4.74;100.00;102243.69;7391863;19;20407;-46
2022/01/14 06:31:51;;;;;;;34.17;11.20;;;;;;;4.78;100.00;102244.88;7401286;19;20459;-46
2022/01/14 06:34:21;;;;;;;33.67;5.50;;;;;;;4.73;100.00;102237.66;7399791;19;20473;-44
2022/01/14 06:36:50;;;;;;;18.20;4.40;;;;;;;4.67;100.00;102239.69;7409101;19;20474;-46
2022/01/14 06:39:23;;;;;;;13.07;4.20;;;;;;;4.65;100.00;102236.09;7398312;19;20433;-44
2022/01/14 06:41:54;;;;;;;13.13;4.37;;;;;;;4.72;100.00;102235.88;7404246;19;20385;-45
2022/01/14 06:44:23;;;;;;;23.10;4.33;;;;;;;4.69;100.00;102235.63;7400913;19;20777;-44
2022/01/14 06:46:53;;;;;;;13.13;3.97;;;;;;;4.68;100.00;102228.69;7404485;19;20455;-49
2022/01/14 06:49:22;;;;;;;13.43;3.20;;;;;;;4.67;100.00;102234.56;7394341;19;20468;-43
2022/01/14 06:51:52;;;;;;;19.47;3.57;;;;;;;4.64;100.00;102236.88;7408433;19;20865;-46
2022/01/14 06:54:24;;;;;;;25.93;4.47;;;;;;;4.65;100.00;102236.09;7401098;19;20411;-45
2022/01/14 06:56:53;;;;;;;22.90;4.27;;;;;;;4.68;100.00;102233.81;7403620;19;20448;-45
2022/01/14 06:59:22;;;;;;;31.03;4.93;;;;;;;4.68;100.00;102244.03;7397636;19;20414;-43
2022/01/14 07:01:53;;;;;;;34.10;9.27;;;;;;;4.73;100.00;102245.34;7403721;19;20656;-46
2022/01/14 07:04:23;;;;;;;29.17;4.93;;;;;;;4.76;100.00;102261.75;7397927;19;20416;-46
2022/01/14 07:06:52;;;;;;;15.47;4.60;;;;;;;4.76;100.00;102274.53;7404052;19;20451;-46
2022/01/14 07:09:25;;;;;;;17.03;3.53;;;;;;;4.77;100.00;102271.22;7397726;19;20691;-44
2022/01/14 07:11:57;;;;;;;15.60;4.30;;;;;;;4.76;100.00;102271.97;7403599;19;20650;-44
2022/01/14 07:14:29;;;;;;;18.50;5.03;;;;;;;4.77;100.00;102271.22;7399639;19;20419;-45
2022/01/14 07:16:59;;;;;;;25.13;5.30;;;;;;;4.80;100.00;102271.47;7403103;19;20388;-44
2022/01/14 07:19:28;;;;;;;20.43;3.87;;;;;;;4.80;100.00;102274.03;7397264;19;20471;-46
2022/01/14 07:21:58;;;;;;;26.23;5.00;;;;;;;4.81;100.00;102270.69;7402339;19;20397;-46
2022/01/14 07:24:30;;;;;;;20.50;5.50;;;;;;;4.87;100.00;102276.38;7398838;19;20484;-44
2022/01/14 07:27:00;;;;;;;25.07;3.97;;;;;;;4.92;100.00;102282.78;7403438;19;20401;-45
2022/01/14 07:29:29;;;;;;;22.03;5.07;;;;;;;4.84;100.00;102277.03;7397858;19;20492;-44
2022/01/14 07:31:58;;;;;;;28.97;5.17;;;;;;;4.83;100.00;102289.66;7401858;19;20393;-46
2022/01/14 07:34:28;;;;;;;20.20;4.87;;;;;;;4.90;100.00;102296.22;7399934;19;20466;-44
2022/01/14 07:36:57;;;;;;;21.93;4.63;;;;;;;4.91;100.00;102296.34;7403022;19;20870;-47
2022/01/14 07:39:30;;;;;;;20.47;5.27;;;;;;;4.93;100.00;102292.25;7396340;19;20487;-46
2022/01/14 07:41:59;;;;;;;28.07;5.40;;;;;;;4.89;100.00;102291.84;7406695;19;20846;-44
2022/01/14 07:44:29;;;;;;;31.20;4.63;;;;;;;4.86;100.00;102297.59;7397678;19;20421;-44
2022/01/14 07:46:58;;;;;;;15.33;4.37;;;;;;;4.85;100.00;102289.03;7407538;19;20396;-44
2022/01/14 07:49:28;;;;;;;25.80;4.73;;;;;;;4.91;100.00;102293.78;7396672;19;20856;-46
2022/01/14 07:51:57;;;;;;;34.33;4.67;;;;;;;5.13;100.00;102291.47;7401846;19;20380;-44
2022/01/14 07:54:30;;;;;;;18.80;4.60;;;;;;;5.13;100.00;102285.50;7398411;19;20495;-44
2022/01/14 07:57:00;;;;;;;19.23;5.87;;;;;;;5.06;100.00;102294.25;7402378;19;20396;-46
2022/01/14 07:59:35;;;;;;;46.77;11.03;;;;;;;5.16;100.00;102289.94;7396750;19;20960;-44
2022/01/14 08:02:05;;;;;;;34.40;8.87;;;;;;;5.08;100.00;102297.84;7401903;19;20431;-48
2022/01/14 08:04:37;;;;;;;21.67;5.73;;;;;;;5.12;100.00;102291.34;7398233;19;20416;-44
2022/01/14 08:07:12;;;;;;;20.93;6.07;;;;;;;5.11;100.00;102294.66;7401302;19;20727;-47
2022/01/14 08:09:45;;;;;;;27.53;6.10;;;;;;;5.03;100.00;102300.78;7392018;19;20425;-48
2022/01/14 08:12:15;;;;;;;19.97;5.27;;;;;;;4.97;100.00;102299.47;7401733;19;20393;-45
2022/01/14 08:14:44;;;;;;;18.93;4.40;;;;;;;4.97;100.00;102306.25;7395921;19;20472;-46
2022/01/14 08:17:17;;;;;;;24.47;5.23;;;;;;;4.96;100.00;102301.88;7401213;19;20462;-45
2022/01/14 08:19:47;;;;;;;24.03;4.43;;;;;;;4.94;100.00;102300.84;7397468;19;20443;-46
2022/01/14 08:22:16;;;;;;;25.50;4.57;;;;;;;4.91;100.00;102301.47;7402084;19;20696;-45
2022/01/14 08:24:48;;;;;;;23.03;4.30;;;;;;;4.93;100.00;102304.16;7396175;19;20501;-45
2022/01/14 08:27:18;;;;;;;24.23;4.50;;;;;;;4.91;100.00;102303.16;7400257;19;20453;-45
2022/01/14 08:29:47;;;;;;;27.80;4.70;;;;;;;4.91;100.00;102308.25;7396355;19;20777;-46
2022/01/14 08:32:17;;;;;;;22.50;4.83;;;;;;;4.91;100.00;102319.38;7400786;19;20413;-45
2022/01/14 08:34:46;;;;;;;20.50;4.13;;;;;;;4.91;100.00;102324.50;7397383;19;20495;-49
2022/01/14 08:37:16;;;;;;;16.53;4.47;;;;;;;4.87;100.00;102319.84;7400657;19;20400;-49
2022/01/14 08:39:45;;;;;;;30.50;5.77;;;;;;;4.86;100.00;102324.09;7392522;19;20739;-46
2022/01/14 08:42:18;;;;;;;17.50;4.57;;;;;;;4.87;100.00;102327.53;7401769;19;20468;-44
2022/01/14 08:44:47;;;;;;;24.60;4.90;;;;;;;4.86;100.00;102330.84;7395437;19;20429;-44
2022/01/14 08:47:17;;;;;;;24.00;4.60;;;;;;;4.83;100.00;102311.00;7400208;19;20410;-45
2022/01/14 08:49:47;;;;;;;17.03;4.10;;;;;;;4.81;100.00;102321.84;7394873;19;20424;-49
2022/01/14 08:52:16;;;;;;;20.43;4.13;;;;;;;4.76;100.00;102318.88;7400394;19;20388;-46
2022/01/14 08:54:46;;;;;;;20.87;5.40;;;;;;;4.75;100.00;102319.66;7398364;19;20432;-44
2022/01/14 08:57:18;;;;;;;16.03;4.13;;;;;;;4.71;100.00;102315.91;7399984;19;20456;-44
2022/01/14 08:59:48;;;;;;;28.27;5.07;;;;;;;4.76;100.00;102315.44;7395998;19;20441;-49
2022/01/14 09:02:17;;;;;;;23.10;4.67;;;;;;;4.76;100.00;102321.44;7399623;19;20388;-46
2022/01/14 09:04:47;;;;;;;18.70;4.47;;;;;;;4.72;100.00;102320.28;7397298;19;20715;-50
2022/01/14 09:07:16;;;;;;;16.90;4.60;;;;;;;4.70;100.00;102323.44;7400825;19;20468;-45
2022/01/14 09:09:46;;;;;;;15.93;5.23;;;;;;;4.69;100.00;102321.66;7394061;19;20491;-49
2022/01/14 09:12:18;;;;;;;22.27;5.87;;;;;;;4.70;100.00;102324.34;7400077;19;20398;-49
2022/01/14 09:14:47;;;;;;;27.10;6.10;;;;;;;4.72;100.00;102330.50;7395823;19;20435;-44
2022/01/14 09:17:17;;;;;;;32.30;6.70;;;;;;;4.72;100.00;102322.81;7399159;19;20455;-46
2022/01/14 09:19:47;;;;;;;33.33;5.80;;;;;;;4.71;100.00;102330.34;7393797;19;20432;-44
2022/01/14 09:22:18;;;;;;;26.87;5.70;;;;;;;4.70;100.00;102333.69;7399753;19;20392;-44
2022/01/14 09:24:52;;;;;;;27.20;4.47;;;;;;;4.68;100.00;102328.41;7394870;19;20436;-45
2022/01/14 09:27:24;;;;;;;38.20;8.90;;;;;;;4.70;100.00;102323.44;7400472;19;20477;-46
2022/01/14 09:29:54;;;;;;;29.97;6.93;;;;;;;4.69;100.00;102316.53;7393313;19;20414;-44
2022/01/14 09:32:25;;;;;;;31.43;5.67;;;;;;;4.69;100.00;102309.78;7399595;19;20456;-48
2022/01/14 09:34:54;;;;;;;33.17;7.07;;;;;;;4.68;100.00;102300.28;7398842;19;20499;-45
2022/01/14 09:37:24;;;;;;;23.70;4.27;;;;;;;4.69;100.00;102302.09;7398455;19;20414;-47
2022/01/14 09:39:53;;;;;;;25.60;6.83;;;;;;;4.76;100.00;102302.66;7394829;19;20524;-44
2022/01/14 09:42:26;;;;;;;21.37;5.67;;;;;;;4.71;100.00;102308.25;7398853;19;20370;-46
2022/01/14 09:44:55;;;;;;;23.80;6.17;;;;;;;4.73;100.00;102304.16;7394174;19;20961;-44
2022/01/14 09:47:25;;;;;;;29.10;7.10;;;;;;;4.73;100.00;102306.72;7400584;19;20397;-43
2022/01/14 09:49:54;;;;;;;17.53;5.93;;;;;;;4.73;100.00;102314.38;7393156;19;20482;-45
2022/01/14 09:52:24;;;;;;;70.60;24.30;;;;;;;4.86;100.00;102301.06;7400466;19;20467;-44
2022/01/14 09:54:54;;;;;;;334.90;118.00;;;;;;;4.87;100.00;102301.94;7392409;19;20478;-47
2022/01/14 09:57:26;;;;;;;212.40;71.77;;;;;;;4.88;100.00;102307.97;7397907;19;20397;-45
2022/01/14 09:59:55;;;;;;;254.23;103.30;;;;;;;4.95;100.00;102320.53;7394151;19;20450;-48
2022/01/14 10:02:33;;;;;;;62.87;20.30;;;;;;;5.00;100.00;102316.75;7398445;19;20459;-49
2022/01/14 10:05:05;;;;;;;28.87;8.67;;;;;;;4.98;100.00;102321.72;7393578;19;20773;-48
2022/01/14 10:07:34;;;;;;;117.03;36.40;;;;;;;5.05;100.00;102323.19;7403808;19;20467;-45
2022/01/14 10:10:24;;;;;;;55.53;17.30;;;;;;;5.00;100.00;102333.00;7402193;19;20427;-43
2022/01/14 10:12:56;;;;;;;81.53;28.27;;;;;;;5.09;100.00;102324.34;7402578;19;20412;-51
2022/01/14 10:15:25;;;;;;;165.10;55.37;;;;;;;5.13;100.00;102342.66;7405504;19;20383;-44
2022/01/14 10:18:02;;;;;;;77.43;24.73;;;;;;;5.05;100.00;102343.66;7398737;19;20385;-50
2022/01/14 10:20:39;;;;;;;109.40;39.43;;;;;;;5.07;100.00;102342.13;7405324;19;20387;-43
2022/01/14 10:23:08;;;;;;;58.00;17.13;;;;;;;5.02;100.00;102352.72;7402284;19;20428;-45
2022/01/14 10:25:39;;;;;;;17.87;7.30;;;;;;;5.09;100.00;102349.94;7403632;19;20408;-48
2022/01/14 10:28:22;;;;;;;141.07;37.83;;;;;;;5.10;100.00;102344.06;7399289;19;20442;-46
2022/01/14 10:30:52;;;;;;;31.27;11.20;;;;;;;5.06;100.00;102339.41;7405122;19;20407;-43
2022/01/14 10:33:24;;;;;;;34.07;10.23;;;;;;;5.12;100.00;102347.63;7400978;19;20421;-46
2022/01/14 10:35:54;;;;;;;27.67;13.20;;;;;;;5.13;100.00;102347.78;7405137;19;20390;-44
2022/01/14 10:38:25;;;;;;;17.30;7.63;;;;;;;5.16;100.00;102343.69;7400137;19;20490;-47
2022/01/14 10:40:56;;;;;;;22.30;8.93;;;;;;;5.16;100.00;102344.59;7404724;19;20392;-45
2022/01/14 10:43:35;;;;;;;26.40;10.53;;;;;;;5.22;100.00;102340.03;7401343;19;20421;-44
2022/01/14 10:46:07;;;;;;;17.20;6.30;;;;;;;5.23;100.00;102344.38;7404541;19;20408;-44
2022/01/14 10:48:38;;;;;;;31.97;11.57;;;;;;;5.30;100.00;102339.81;7397392;19;20445;-49
2022/01/14 10:51:10;;;;;;;33.80;15.53;;;;;;;5.35;100.00;102336.00;7404610;19;20395;-44
2022/01/14 10:53:41;;;;;;;39.37;15.50;;;;;;;5.36;100.00;102335.22;7400451;19;20688;-49
2022/01/14 10:56:12;;;;;;;38.93;14.90;;;;;;;5.37;100.00;102337.03;7404527;19;20452;-45
2022/01/14 10:58:46;;;;;;;18.67;7.30;;;;;;;5.27;100.00;102336.22;7395953;19;20941;-44
2022/01/14 11:01:19;;;;;;;19.30;5.77;;;;;;;5.31;100.00;102331.34;7407824;19;20393;-46
2022/01/14 11:03:52;;;;;;;10.50;4.27;;;;;;;5.20;100.00;102328.78;7399005;19;20430;-43
2022/01/14 11:06:23;;;;;;;19.53;5.03;;;;;;;5.26;100.00;102323.28;7401820;19;20714;-48
2022/01/14 11:08:58;;;;;;;20.17;8.37;;;;;;;5.26;100.00;102334.44;7394387;19;20883;-47
2022/01/14 11:11:28;;;;;;;13.50;3.77;;;;;;;5.31;100.00;102336.47;7403845;19;20454;-52
2022/01/14 11:14:00;;;;;;;11.50;4.33;;;;;;;5.32;100.00;102334.06;7398701;19;20489;-45
2022/01/14 11:16:30;;;;;;;9.67;4.17;;;;;;;5.20;100.00;102330.41;7403909;19;20715;-51
2022/01/14 11:19:02;;;;;;;13.60;5.93;;;;;;;5.25;100.00;102317.28;7391641;19;20424;-51
2022/01/14 11:24:16;;;;;;;27.97;7.03;;;;;;;5.27;100.00;102315.75;7400007;19;20479;-44
2022/01/14 11:26:46;;;;;;;15.23;4.33;;;;;;;5.34;100.00;102321.41;7400447;19;20448;-45
2022/01/14 11:29:20;;;;;;;15.13;4.50;;;;;;;5.42;100.00;102322.97;7396802;19;20424;-45
2022/01/14 11:31:58;;;;;;;18.77;6.60;;;;;;;5.39;100.00;102335.50;7403543;19;20460;-44
2022/01/14 11:34:35;;;;;;;12.07;3.27;;;;;;;5.36;100.00;102325.00;7399181;19;20437;-44
2022/01/14 11:37:07;;;;;;;6.90;3.47;;;;;;;5.33;100.00;102324.72;7405976;19;20938;-44
2022/01/14 11:39:37;;;;;;;12.90;3.60;;;;;;;5.43;100.00;102317.09;7397798;19;20508;-47
2022/01/14 11:42:12;;;;;;;7.70;4.03;;;;;;;5.42;100.00;102325.53;7403096;19;20458;-44
2022/01/14 11:45:01;;;;;;;15.40;6.23;;;;;;;5.49;100.00;102311.63;7400340;19;20421;-49
2022/01/14 11:47:49;;;;;;;15.03;3.00;;;;;;;5.35;100.00;102313.88;7401923;19;20859;-48
2022/01/14 11:50:48;;;;;;;9.63;3.17;;;;;;;5.38;100.00;102313.22;7405390;19;20906;-45
2022/01/14 11:53:37;;;;;;;7.10;2.90;;;;;;;5.37;100.00;102317.44;7400551;19;20426;-45
2022/01/14 11:56:09;;;;;;;3.70;2.70;;;;;;;5.35;100.00;102312.97;7402340;19;20875;-44
2022/01/14 11:58:39;;;;;;;6.40;3.40;;;;;;;5.39;100.00;102300.56;7395768;19;20424;-43